METAR Data
IDs: Format: Raw Decoded Include TAF

Data at: 1519 UTC 21 Sep 2018

KTEB 211451Z 20012KT 10SM OVC041 22/16 A3022 RMK AO2 SLP232 T02170161 58007
KTEB 211423Z 20009KT 10SM OVC039 22/17 A3023 RMK AO2 T02170167
KTEB 211351Z 18008KT 10SM OVC028 21/16 A3023 RMK AO2 SLP237 T02110161
KTEB 211251Z 18008KT 10SM OVC028 21/16 A3024 RMK AO2 SLP239 T02060161
KTEB 211151Z 17007KT 10SM OVC029 21/16 A3024 RMK AO2 SLP239 T02060156 10206 20194 51004
KTEB 211051Z 19006KT 10SM OVC029 21/16 A3024 RMK AO2 SLP239 T02060161
KTEB 210951Z 19005KT 10SM OVC033 21/16 A3024 RMK AO2 SLP239 T02060161
KTEB 210851Z 18005KT 10SM OVC033 21/16 A3023 RMK AO2 SLP236 T02060161 55002
KTEB 210751Z 18004KT 10SM OVC034 20/16 A3023 RMK AO2 SLP235 T02000161
KTEB 210651Z 17006KT 10SM SCT025 OVC034 21/16 A3022 RMK AO2 SLP233 T02060156
KTEB 210559Z VRB03KT 10SM BKN027 OVC035 21/16 A3023 RMK AO2 T02060156
KTEB 210551Z 16005KT 10SM OVC034 21/16 A3024 RMK AO2 SLP238 T02060156 10217 20200 58002
KTEB 210539Z 18007KT 10SM SCT026 OVC035 21/16 A3024 RMK AO2 T02060156
KTEB 210451Z 16004KT 10SM OVC023 21/16 A3025 RMK AO2 SLP242 T02060161 402390189
KTEB 210351Z 15005KT 10SM OVC024 21/16 A3024 RMK AO2 SLP240 T02060156
KTEB 210251Z 14007KT 10SM BKN025 OVC032 21/16 A3024 RMK AO2 SLP239 T02060156 51007
KTEB 210219Z 14005KT 10SM BKN028 BKN034 OVC055 21/16 A3024 RMK AO2 T02060161
KTEB 210151Z 18004KT 10SM OVC033 20/16 A3023 RMK AO2 SLP238 T02000161
KTEB 210123Z 17006KT 10SM BKN023 BKN033 OVC055 21/16 A3024 RMK AO2 T02110161
KTEB 210051Z 18004KT 10SM FEW032 OVC055 21/16 A3023 RMK AO2 SLP237 T02060161
KTEB 202351Z 19007KT 10SM SCT036 OVC049 21/16 A3022 RMK AO2 SLP232 T02060161 10239 20206 50008
KTEB 202251Z 19007KT 10SM OVC040 22/16 A3022 RMK AO2 SLP232 T02170161
KTEB 202151Z 19006KT 10SM OVC037 22/16 A3021 RMK AO2 SLP231 T02170156
KTEB 202051Z 17005KT 10SM OVC037 23/16 A3019 RMK AO2 SLP224 T02330156 56010
KTEB 201951Z VRB03KT 10SM BKN037 BKN060 23/15 A3020 RMK AO2 SLP225 T02280150
KTEB 201851Z VRB03KT 10SM BKN039 OVC060 22/14 A3021 RMK AO2 SLP228 T02220139
KTEB 201751Z 02005KT 10SM OVC038 22/14 A3022 RMK AO2 SLP234 T02170144 10217 20189 58003
KTEB 201651Z 12006KT 10SM OVC036 21/15 A3023 RMK AO2 SLP235 T02110150
KTEB 201551Z 10005KT 10SM FEW025 OVC032 21/15 A3024 RMK AO2 SLP239 T02060150
KTEB 201540Z 10004KT 10SM FEW024 OVC031 20/14 A3024 RMK AO2 T02000144
KTEB 201451Z 06004KT 10SM OVC025 20/14 A3023 RMK AO2 SLP237 T02000144 51016
KTEB 201351Z 07005KT 10SM OVC023 19/14 A3022 RMK AO2 SLP233 T01940144
KTEB 201251Z VRB04KT 10SM OVC021 19/14 A3019 RMK AO2 SLP224 T01890144
KTEB 201151Z 08004KT 10SM OVC023 19/14 A3018 RMK AO2 SLP221 T01890144 10206 20189 53027
KTEB 201051Z 07004KT 10SM OVC022 19/14 A3015 RMK AO2 SLP208 T01890144
KTEB 200951Z 11005KT 10SM OVC020 19/15 A3012 RMK AO2 SLP199 T01890150
KTEB 200851Z VRB06KT 10SM OVC019 19/15 A3010 RMK AO2 SLP193 T01890150 53009
KTEB 200751Z 07005KT 10SM OVC024 19/15 A3009 RMK AO2 SLP189 T01940150
KTEB 200651Z 08004KT 10SM BKN020 OVC025 20/16 A3008 RMK AO2 SLP186 T02000161
KTEB 200551Z 09008KT 10SM SCT026 SCT046 OVC060 21/17 A3007 RMK AO2 SLP184 60000 T02060167 10244 20206 53012
KTEB 200451Z 09003KT 10SM BKN023 OVC046 21/18 A3006 RMK AO2 RAB13E25 SLP178 P0000 T02110178 402890189
KTEB 200351Z 36003KT 10SM OVC015 22/19 A3005 RMK AO2 SLP176 T02220194